createdAt,value
2018-09-26T00:00:13.357Z,97489.00
2018-09-26T00:00:45.638Z,97484.00
2018-09-26T00:01:17.794Z,97481.00
2018-09-26T00:01:49.882Z,97485.00
2018-09-26T00:02:22.007Z,97487.00
2018-09-26T00:02:54.218Z,97481.00
2018-09-26T00:03:26.579Z,97478.00
2018-09-26T00:03:58.874Z,97480.00
2018-09-26T00:04:31.199Z,97481.00
2018-09-26T00:05:03.289Z,97482.00
2018-09-26T00:05:35.476Z,97482.00
2018-09-26T00:06:07.852Z,97478.00
2018-09-26T00:06:40.061Z,97479.00
2018-09-26T00:07:12.212Z,97481.00
2018-09-26T00:07:44.333Z,97481.00
2018-09-26T00:08:16.508Z,97479.00
2018-09-26T00:08:48.732Z,97485.00
2018-09-26T00:09:20.856Z,97486.00
2018-09-26T00:09:53.087Z,97484.00
2018-09-26T00:10:25.427Z,97489.00
2018-09-26T00:10:57.544Z,97488.00
2018-09-26T00:11:29.851Z,97488.00
2018-09-26T00:12:02.103Z,97491.00
2018-09-26T00:12:34.236Z,97492.00
2018-09-26T00:13:06.427Z,97490.00
2018-09-26T00:13:38.568Z,97491.00
2018-09-26T00:14:10.748Z,97486.00
2018-09-26T00:14:42.919Z,97497.00
2018-09-26T00:15:15.092Z,97495.00
2018-09-26T00:15:47.471Z,97497.00
2018-09-26T00:16:19.562Z,97499.00
2018-09-26T00:16:51.688Z,97496.00
2018-09-26T00:17:23.955Z,97502.00
2018-09-26T00:17:56.069Z,97499.00
2018-09-26T00:18:28.204Z,97500.00
2018-09-26T00:19:00.479Z,97503.00
2018-09-26T00:19:32.648Z,97500.00
2018-09-26T00:20:05.030Z,97496.00
2018-09-26T00:20:37.169Z,97498.00
2018-09-26T00:21:09.309Z,97503.00
2018-09-26T00:21:41.426Z,97501.00
2018-09-26T00:22:13.523Z,97504.00
2018-09-26T00:22:45.820Z,97501.00
2018-09-26T00:23:17.901Z,97501.00
2018-09-26T00:23:50.313Z,97497.00
2018-09-26T00:24:22.468Z,97495.00
2018-09-26T00:24:54.760Z,97498.00
2018-09-26T00:25:26.940Z,97496.00
2018-09-26T00:25:59.233Z,97493.00
2018-09-26T00:26:31.711Z,97496.00
2018-09-26T00:27:03.870Z,97493.00
2018-09-26T00:27:36.103Z,97490.00
2018-09-26T00:28:08.392Z,97492.00
2018-09-26T00:28:40.795Z,97490.00
2018-09-26T00:29:13.100Z,97490.00
2018-09-26T00:29:45.232Z,97493.00
2018-09-26T00:30:17.488Z,97487.00
2018-09-26T00:30:49.648Z,97486.00
2018-09-26T00:31:21.899Z,97484.00
2018-09-26T00:31:54.095Z,97482.00
2018-09-26T00:32:26.268Z,97481.00
2018-09-26T00:32:58.343Z,97482.00
2018-09-26T00:33:30.434Z,97477.00
2018-09-26T00:34:02.703Z,97474.00
2018-09-26T00:34:34.937Z,97472.00
2018-09-26T00:35:07.097Z,97470.00
2018-09-26T00:35:39.461Z,97473.00
2018-09-26T00:36:11.700Z,97467.00
2018-09-26T00:36:43.741Z,97469.00
2018-09-26T00:37:15.870Z,97470.00
2018-09-26T00:37:48.209Z,97466.00
2018-09-26T00:38:20.341Z,97467.00
2018-09-26T00:38:52.560Z,97463.00
2018-09-26T00:39:24.713Z,97462.00
2018-09-26T00:39:56.806Z,97461.00
2018-09-26T00:40:28.927Z,97461.00
2018-09-26T00:41:01.075Z,97462.00
2018-09-26T00:41:33.644Z,97458.00
2018-09-26T00:42:05.872Z,97460.00
2018-09-26T00:42:38.090Z,97462.00
2018-09-26T00:43:10.260Z,97463.00
2018-09-26T00:43:42.567Z,97457.00
2018-09-26T00:44:14.722Z,97454.00
2018-09-26T00:44:46.876Z,97458.00
2018-09-26T00:45:19.220Z,97453.00
2018-09-26T00:45:51.323Z,97448.00
2018-09-26T00:46:23.515Z,97449.00
2018-09-26T00:46:55.822Z,97445.00
2018-09-26T00:47:28.063Z,97444.00
2018-09-26T00:48:00.211Z,97448.00
2018-09-26T00:48:32.494Z,97446.00
2018-09-26T00:49:04.640Z,97444.00
2018-09-26T00:49:36.719Z,97439.00
2018-09-26T00:50:08.833Z,97440.00
2018-09-26T00:50:40.998Z,97439.00
2018-09-26T00:51:13.240Z,97442.00
2018-09-26T00:51:45.412Z,97441.00
2018-09-26T00:52:17.540Z,97438.00
2018-09-26T00:52:49.769Z,97437.00
2018-09-26T00:53:22.071Z,97434.00
2018-09-26T00:53:54.350Z,97437.00
2018-09-26T00:54:26.687Z,97433.00
2018-09-26T00:54:58.768Z,97434.00
2018-09-26T00:55:30.926Z,97435.00
2018-09-26T00:56:03.037Z,97438.00
2018-09-26T00:56:35.159Z,97441.00
2018-09-26T00:57:07.286Z,97444.00
2018-09-26T00:57:39.493Z,97445.00
2018-09-26T00:58:11.853Z,97447.00
2018-09-26T00:58:44.084Z,97450.00
2018-09-26T00:59:16.169Z,97454.00
2018-09-26T00:59:48.388Z,97451.00
2018-09-26T01:00:20.599Z,97454.00
2018-09-26T01:00:52.810Z,97452.00
2018-09-26T01:01:25.149Z,97451.00
2018-09-26T01:01:57.481Z,97451.00
2018-09-26T01:02:29.649Z,97450.00
2018-09-26T01:03:01.990Z,97447.00
2018-09-26T01:03:34.238Z,97440.00
2018-09-26T01:04:06.419Z,97440.00
2018-09-26T01:04:38.728Z,97440.00
2018-09-26T01:05:11.185Z,97432.00
2018-09-26T01:05:43.417Z,97432.00
2018-09-26T01:06:15.722Z,97427.00
2018-09-26T01:06:47.800Z,97422.00
2018-09-26T01:07:19.964Z,97422.00
2018-09-26T01:07:52.169Z,97416.00
2018-09-26T01:08:24.278Z,97420.00
2018-09-26T01:08:56.453Z,97413.00
2018-09-26T01:09:28.637Z,97415.00
2018-09-26T01:10:00.897Z,97412.00
2018-09-26T01:10:33.055Z,97412.00
2018-09-26T01:11:05.542Z,97418.00
2018-09-26T01:11:37.624Z,97412.00
2018-09-26T01:12:09.870Z,97420.00
2018-09-26T01:12:42.121Z,97411.00
2018-09-26T01:13:14.399Z,97412.00
2018-09-26T01:13:46.486Z,97409.00
2018-09-26T01:14:18.834Z,97410.00
2018-09-26T01:14:51.161Z,97410.00
2018-09-26T01:15:23.363Z,97408.00
2018-09-26T01:15:55.575Z,97414.00
2018-09-26T01:16:27.922Z,97405.00
2018-09-26T01:17:00.341Z,97413.00
2018-09-26T01:17:32.676Z,97411.00
2018-09-26T01:18:04.811Z,97411.00
2018-09-26T01:18:37.052Z,97401.00
2018-09-26T01:19:09.302Z,97405.00
2018-09-26T01:19:41.431Z,97399.00
2018-09-26T01:20:13.670Z,97398.00
2018-09-26T01:20:45.804Z,97397.00
2018-09-26T01:21:17.932Z,97396.00
2018-09-26T01:21:50.242Z,97390.00
2018-09-26T01:22:22.587Z,97391.00
2018-09-26T01:22:54.932Z,97386.00
2018-09-26T01:23:27.061Z,97388.00
2018-09-26T01:23:59.313Z,97386.00
2018-09-26T01:24:31.394Z,97385.00
2018-09-26T01:25:03.654Z,97384.00
2018-09-26T01:25:35.810Z,97383.00
2018-09-26T01:26:07.965Z,97385.00
2018-09-26T01:26:40.154Z,97383.00
2018-09-26T01:27:12.268Z,97378.00
2018-09-26T01:27:44.461Z,97377.00
2018-09-26T01:28:16.638Z,97376.00
2018-09-26T01:28:48.952Z,97374.00
2018-09-26T01:29:21.050Z,97378.00
2018-09-26T01:29:53.443Z,97373.00
2018-09-26T01:30:25.700Z,97374.00
2018-09-26T01:30:57.822Z,97369.00
2018-09-26T01:31:30.161Z,97371.00
2018-09-26T01:32:02.271Z,97373.00
2018-09-26T01:32:34.380Z,97373.00
2018-09-26T01:33:06.512Z,97371.00
2018-09-26T01:33:38.690Z,97370.00
2018-09-26T01:34:10.889Z,97372.00
2018-09-26T01:34:43.042Z,97370.00
2018-09-26T01:35:15.159Z,97373.00
2018-09-26T01:35:47.311Z,97369.00
2018-09-26T01:36:19.430Z,97371.00
2018-09-26T01:36:51.555Z,97369.00
2018-09-26T01:37:23.752Z,97371.00
2018-09-26T01:37:55.829Z,97368.00
2018-09-26T01:38:28.278Z,97368.00
2018-09-26T01:39:00.367Z,97362.00
2018-09-26T01:39:32.492Z,97369.00
2018-09-26T01:40:04.614Z,97363.00
2018-09-26T01:40:36.833Z,97362.00
2018-09-26T01:41:09.352Z,97358.00
2018-09-26T01:41:41.541Z,97362.00
2018-09-26T01:42:13.712Z,97358.00
2018-09-26T01:42:45.942Z,97361.00
2018-09-26T01:43:18.116Z,97359.00
2018-09-26T01:43:50.219Z,97356.00
2018-09-26T01:44:22.377Z,97358.00
2018-09-26T01:44:54.785Z,97358.00
2018-09-26T01:45:26.918Z,97359.00
2018-09-26T01:45:59.180Z,97359.00
2018-09-26T01:46:31.461Z,97360.00
2018-09-26T01:47:03.565Z,97354.00
2018-09-26T01:47:35.713Z,97356.00
2018-09-26T01:48:07.843Z,97353.00
2018-09-26T01:48:39.967Z,97349.00
2018-09-26T01:49:12.147Z,97350.00
2018-09-26T01:49:44.253Z,97352.00
2018-09-26T01:50:16.350Z,97351.00
2018-09-26T01:50:48.592Z,97352.00
2018-09-26T01:51:20.715Z,97347.00
2018-09-26T01:51:52.962Z,97346.00
2018-09-26T01:52:25.160Z,97350.00
2018-09-26T01:52:57.295Z,97347.00
2018-09-26T01:53:29.442Z,97346.00
2018-09-26T01:54:01.614Z,97345.00
2018-09-26T01:54:33.762Z,97346.00
2018-09-26T01:55:05.935Z,97346.00
2018-09-26T01:55:38.150Z,97346.00
2018-09-26T01:56:10.483Z,97346.00
2018-09-26T01:56:42.670Z,97346.00
2018-09-26T01:57:14.867Z,97347.00
2018-09-26T01:57:47.215Z,97348.00
2018-09-26T01:58:19.552Z,97350.00
2018-09-26T01:58:51.656Z,97349.00
2018-09-26T01:59:24.124Z,97346.00
2018-09-26T01:59:56.296Z,97346.00
2018-09-26T02:00:28.479Z,97347.00
2018-09-26T02:01:00.642Z,97348.00
2018-09-26T02:01:32.922Z,97343.00
2018-09-26T02:02:05.272Z,97341.00
2018-09-26T02:02:37.455Z,97342.00
2018-09-26T02:03:09.581Z,97339.00
2018-09-26T02:03:41.746Z,97344.00
2018-09-26T02:04:13.968Z,97341.00
2018-09-26T02:04:46.114Z,97340.00
2018-09-26T02:05:18.414Z,97340.00
2018-09-26T02:05:50.539Z,97345.00
2018-09-26T02:06:22.654Z,97336.00
2018-09-26T02:06:54.749Z,97338.00
2018-09-26T02:07:26.933Z,97341.00
2018-09-26T02:07:59.165Z,97343.00
2018-09-26T02:08:31.426Z,97342.00
2018-09-26T02:09:03.578Z,97345.00
2018-09-26T02:09:35.773Z,97342.00
2018-09-26T02:10:07.876Z,97344.00
2018-09-26T02:10:40.116Z,97343.00
2018-09-26T02:11:12.223Z,97346.00
2018-09-26T02:11:44.363Z,97346.00
2018-09-26T02:12:16.520Z,97341.00
2018-09-26T02:12:48.628Z,97343.00
2018-09-26T02:13:20.880Z,97344.00
2018-09-26T02:13:53.041Z,97342.00
2018-09-26T02:14:25.260Z,97342.00
2018-09-26T02:14:57.433Z,97339.00
2018-09-26T02:15:29.652Z,97337.00
2018-09-26T02:16:01.902Z,97339.00
2018-09-26T02:16:34.028Z,97342.00
2018-09-26T02:17:06.252Z,97341.00
2018-09-26T02:17:38.365Z,97337.00
2018-09-26T02:18:10.701Z,97340.00
2018-09-26T02:18:42.933Z,97338.00
2018-09-26T02:19:15.229Z,97337.00
2018-09-26T02:19:47.402Z,97332.00
2018-09-26T02:20:19.474Z,97337.00
2018-09-26T02:20:51.633Z,97336.00
2018-09-26T02:21:23.747Z,97333.00
2018-09-26T02:21:55.900Z,97333.00
2018-09-26T02:22:28.313Z,97336.00
2018-09-26T02:23:00.593Z,97333.00
2018-09-26T02:23:32.811Z,97334.00
2018-09-26T02:24:04.923Z,97332.00
2018-09-26T02:24:37.220Z,97333.00
2018-09-26T02:25:09.383Z,97332.00
2018-09-26T02:25:41.683Z,97335.00
2018-09-26T02:26:13.834Z,97338.00
2018-09-26T02:26:45.943Z,97334.00
2018-09-26T02:27:18.126Z,97333.00
2018-09-26T02:27:50.324Z,97334.00
2018-09-26T02:28:22.424Z,97336.00
2018-09-26T02:28:54.622Z,97329.00
2018-09-26T02:29:26.957Z,97330.00
2018-09-26T02:29:59.114Z,97329.00
2018-09-26T02:30:31.407Z,97331.00
2018-09-26T02:31:03.564Z,97328.00
2018-09-26T02:31:35.665Z,97335.00
2018-09-26T02:32:07.904Z,97338.00
2018-09-26T02:32:40.064Z,97337.00
2018-09-26T02:33:12.403Z,97334.00
2018-09-26T02:33:44.586Z,97336.00
2018-09-26T02:34:16.722Z,97336.00
2018-09-26T02:34:48.915Z,97342.00
2018-09-26T02:35:21.023Z,97343.00
2018-09-26T02:35:53.373Z,97339.00
2018-09-26T02:36:25.526Z,97339.00
2018-09-26T02:36:57.717Z,97343.00
2018-09-26T02:37:29.873Z,97336.00
2018-09-26T02:38:02.252Z,97341.00
2018-09-26T02:38:34.383Z,97339.00
2018-09-26T02:39:06.502Z,97337.00
2018-09-26T02:39:38.620Z,97338.00
2018-09-26T02:40:10.708Z,97340.00
2018-09-26T02:40:43.034Z,97337.00
2018-09-26T02:41:15.273Z,97340.00
2018-09-26T02:41:47.394Z,97340.00
2018-09-26T02:42:19.565Z,97342.00
2018-09-26T02:42:51.725Z,97337.00
2018-09-26T02:43:23.864Z,97339.00
2018-09-26T02:43:56.331Z,97338.00
2018-09-26T02:44:28.556Z,97338.00
2018-09-26T02:45:00.753Z,97337.00
2018-09-26T02:45:33.015Z,97336.00
2018-09-26T02:46:05.234Z,97337.00
2018-09-26T02:46:37.455Z,97340.00
2018-09-26T02:47:09.566Z,97334.00
2018-09-26T02:47:41.795Z,97335.00
2018-09-26T02:48:13.939Z,97328.00
2018-09-26T02:48:46.244Z,97331.00
2018-09-26T02:49:18.485Z,97332.00
2018-09-26T02:49:50.703Z,97331.00
2018-09-26T02:50:22.809Z,97330.00
2018-09-26T02:50:55.132Z,97333.00
2018-09-26T02:51:27.307Z,97337.00
2018-09-26T02:51:59.667Z,97336.00
2018-09-26T02:52:31.778Z,97334.00
2018-09-26T02:53:03.917Z,97336.00
2018-09-26T02:53:36.144Z,97341.00
2018-09-26T02:54:08.543Z,97341.00
2018-09-26T02:54:40.703Z,97337.00
2018-09-26T02:55:12.950Z,97343.00
2018-09-26T02:55:45.315Z,97340.00
2018-09-26T02:56:17.404Z,97340.00
2018-09-26T02:56:49.580Z,97340.00
2018-09-26T02:57:21.717Z,97338.00
2018-09-26T02:57:53.815Z,97340.00
2018-09-26T02:58:25.964Z,97340.00
2018-09-26T02:58:58.055Z,97341.00
2018-09-26T02:59:30.164Z,97339.00
2018-09-26T03:00:02.278Z,97333.00
2018-09-26T03:00:34.505Z,97334.00
2018-09-26T03:01:06.680Z,97335.00
2018-09-26T03:01:38.826Z,97329.00
2018-09-26T03:02:10.921Z,97328.00
2018-09-26T03:02:43.013Z,97330.00
2018-09-26T03:03:15.100Z,97328.00
2018-09-26T03:03:47.245Z,97328.00
2018-09-26T03:04:19.374Z,97324.00
2018-09-26T03:04:51.625Z,97324.00
2018-09-26T03:05:23.737Z,97323.00
2018-09-26T03:05:55.939Z,97324.00
2018-09-26T03:06:28.253Z,97325.00
2018-09-26T03:07:00.455Z,97321.00
2018-09-26T03:07:32.549Z,97323.00
2018-09-26T03:08:04.658Z,97321.00
2018-09-26T03:08:36.749Z,97320.00
2018-09-26T03:09:08.821Z,97316.00
2018-09-26T03:09:40.918Z,97321.00
2018-09-26T03:10:12.991Z,97319.00
2018-09-26T03:10:45.283Z,97320.00
2018-09-26T03:11:17.412Z,97321.00
2018-09-26T03:11:49.505Z,97320.00
2018-09-26T03:12:21.634Z,97320.00
2018-09-26T03:12:53.903Z,97323.00
2018-09-26T03:13:26.054Z,97322.00
2018-09-26T03:13:58.310Z,97318.00
2018-09-26T03:14:30.373Z,97320.00
2018-09-26T03:15:02.593Z,97315.00
2018-09-26T03:15:34.659Z,97311.00
2018-09-26T03:16:07.398Z,97315.00
2018-09-26T03:16:39.633Z,97311.00
2018-09-26T03:17:11.746Z,97310.00
2018-09-26T03:17:44.062Z,97308.00
2018-09-26T03:18:16.117Z,97307.00
2018-09-26T03:18:48.284Z,97307.00
2018-09-26T03:19:20.512Z,97307.00
2018-09-26T03:19:52.664Z,97308.00
2018-09-26T03:20:24.749Z,97312.00
2018-09-26T03:20:56.861Z,97305.00
2018-09-26T03:21:29.081Z,97310.00
2018-09-26T03:22:01.168Z,97309.00
2018-09-26T03:22:33.233Z,97312.00
2018-09-26T03:23:05.583Z,97311.00
2018-09-26T03:23:37.773Z,97315.00
2018-09-26T03:24:09.841Z,97313.00
2018-09-26T03:24:41.952Z,97310.00
2018-09-26T03:25:14.056Z,97311.00
2018-09-26T03:25:46.388Z,97312.00
2018-09-26T03:26:18.598Z,97309.00
2018-09-26T03:26:50.747Z,97313.00
2018-09-26T03:27:22.829Z,97317.00
2018-09-26T03:27:54.915Z,97313.00
2018-09-26T03:28:27.272Z,97312.00
2018-09-26T03:28:59.620Z,97310.00
2018-09-26T03:29:31.698Z,97316.00
2018-09-26T03:30:03.945Z,97315.00
2018-09-26T03:30:36.052Z,97311.00
2018-09-26T03:31:08.163Z,97309.00
2018-09-26T03:31:40.308Z,97312.00
2018-09-26T03:32:12.426Z,97310.00
2018-09-26T03:32:44.555Z,97310.00
2018-09-26T03:33:16.689Z,97311.00
2018-09-26T03:33:48.846Z,97313.00
2018-09-26T03:34:21.089Z,97310.00
2018-09-26T03:34:53.314Z,97312.00
2018-09-26T03:35:25.416Z,97315.00
2018-09-26T03:35:57.536Z,97313.00
2018-09-26T03:36:29.725Z,97314.00
2018-09-26T03:37:01.849Z,97313.00
2018-09-26T03:37:34.185Z,97315.00
2018-09-26T03:38:06.317Z,97313.00
2018-09-26T03:38:38.397Z,97315.00
2018-09-26T03:39:10.468Z,97314.00
2018-09-26T03:39:42.569Z,97317.00
2018-09-26T03:40:14.678Z,97314.00
2018-09-26T03:40:46.972Z,97314.00
2018-09-26T03:41:19.115Z,97313.00
2018-09-26T03:41:51.212Z,97312.00
2018-09-26T03:42:23.346Z,97314.00
2018-09-26T03:42:55.468Z,97313.00
2018-09-26T03:43:27.743Z,97311.00
2018-09-26T03:43:59.827Z,97313.00
2018-09-26T03:44:31.931Z,97315.00
2018-09-26T03:45:04.117Z,97314.00
2018-09-26T03:45:36.276Z,97315.00
2018-09-26T03:46:08.408Z,97320.00
2018-09-26T03:46:40.543Z,97319.00
2018-09-26T03:47:12.781Z,97318.00
2018-09-26T03:47:44.957Z,97322.00
2018-09-26T03:48:17.169Z,97319.00
2018-09-26T03:48:49.305Z,97325.00
2018-09-26T03:49:21.431Z,97319.00
2018-09-26T03:49:53.526Z,97317.00
2018-09-26T03:50:25.641Z,97317.00
2018-09-26T03:50:57.780Z,97311.00
2018-09-26T03:51:29.892Z,97315.00
2018-09-26T03:52:02.022Z,97312.00
2018-09-26T03:52:34.300Z,97307.00
2018-09-26T03:53:06.609Z,97308.00
2018-09-26T03:53:38.690Z,97310.00
2018-09-26T03:54:10.835Z,97307.00
2018-09-26T03:54:42.978Z,97307.00
2018-09-26T03:55:15.276Z,97303.00
2018-09-26T03:55:47.398Z,97306.00
2018-09-26T03:56:19.846Z,97303.00
2018-09-26T03:56:52.009Z,97305.00
2018-09-26T03:57:24.086Z,97301.00
2018-09-26T03:57:56.447Z,97302.00
2018-09-26T03:58:28.556Z,97306.00
2018-09-26T03:59:00.694Z,97305.00
2018-09-26T03:59:32.913Z,97307.00
2018-09-26T04:00:05.072Z,97303.00
2018-09-26T04:00:37.208Z,97301.00
2018-09-26T04:01:09.346Z,97302.00
2018-09-26T04:01:41.516Z,97297.00
2018-09-26T04:02:13.604Z,97296.00
2018-09-26T04:02:45.731Z,97295.00
2018-09-26T04:03:17.856Z,97294.00
2018-09-26T04:03:49.954Z,97297.00
2018-09-26T04:04:22.139Z,97292.00
2018-09-26T04:04:54.485Z,97295.00
2018-09-26T04:05:26.813Z,97298.00
2018-09-26T04:05:58.933Z,97300.00
2018-09-26T04:06:31.034Z,97300.00
2018-09-26T04:07:03.141Z,97299.00
2018-09-26T04:07:35.266Z,97298.00
2018-09-26T04:08:07.392Z,97303.00
2018-09-26T04:08:39.514Z,97302.00
2018-09-26T04:09:11.632Z,97304.00
2018-09-26T04:09:43.746Z,97300.00
2018-09-26T04:10:15.880Z,97303.00
2018-09-26T04:10:48.200Z,97304.00
2018-09-26T04:11:20.471Z,97302.00
2018-09-26T04:11:52.562Z,97302.00
2018-09-26T04:12:24.764Z,97301.00
2018-09-26T04:12:57.077Z,97294.00
2018-09-26T04:13:29.246Z,97302.00
2018-09-26T04:14:01.346Z,97299.00
2018-09-26T04:14:33.530Z,97302.00
2018-09-26T04:15:05.579Z,97302.00
2018-09-26T04:15:37.911Z,97302.00
2018-09-26T04:16:10.164Z,97302.00
2018-09-26T04:16:42.368Z,97304.00
2018-09-26T04:17:14.612Z,97304.00
2018-09-26T04:17:46.730Z,97303.00
2018-09-26T04:18:18.916Z,97307.00
2018-09-26T04:18:51.205Z,97304.00
2018-09-26T04:19:23.307Z,97304.00
2018-09-26T04:19:55.393Z,97303.00
2018-09-26T04:20:27.565Z,97309.00
2018-09-26T04:20:59.693Z,97303.00
2018-09-26T04:21:31.846Z,97302.00
2018-09-26T04:22:03.976Z,97307.00
2018-09-26T04:22:36.107Z,97299.00
2018-09-26T04:23:08.243Z,97300.00
2018-09-26T04:23:40.976Z,97300.00
2018-09-26T04:24:13.052Z,97301.00
2018-09-26T04:24:45.186Z,97298.00
2018-09-26T04:25:17.298Z,97299.00
2018-09-26T04:25:49.393Z,97299.00
2018-09-26T04:26:21.696Z,97303.00
2018-09-26T04:26:54.324Z,97300.00
2018-09-26T04:27:26.591Z,97295.00
2018-09-26T04:27:58.623Z,97295.00
2018-09-26T04:28:31.101Z,97299.00
2018-09-26T04:29:03.531Z,97295.00
2018-09-26T04:29:35.653Z,97295.00
2018-09-26T04:30:07.794Z,97295.00
2018-09-26T04:30:39.935Z,97297.00
2018-09-26T04:31:12.049Z,97297.00
2018-09-26T04:31:44.231Z,97295.00
2018-09-26T04:32:16.525Z,97296.00
2018-09-26T04:32:48.939Z,97299.00
2018-09-26T04:33:20.974Z,97298.00
2018-09-26T04:33:53.045Z,97301.00
2018-09-26T04:34:25.290Z,97304.00
2018-09-26T04:34:57.439Z,97303.00
2018-09-26T04:35:29.711Z,97310.00
2018-09-26T04:36:02.012Z,97307.00
2018-09-26T04:36:34.204Z,97311.00
2018-09-26T04:37:06.326Z,97305.00
2018-09-26T04:37:38.505Z,97311.00
2018-09-26T04:38:10.620Z,97302.00
2018-09-26T04:38:42.779Z,97305.00
2018-09-26T04:39:15.076Z,97306.00
2018-09-26T04:39:47.137Z,97305.00
2018-09-26T04:40:19.314Z,97305.00
2018-09-26T04:40:51.470Z,97305.00
2018-09-26T04:41:23.773Z,97303.00
2018-09-26T04:41:55.882Z,97298.00
2018-09-26T04:42:28.055Z,97299.00
2018-09-26T04:43:00.154Z,97299.00
2018-09-26T04:43:32.409Z,97299.00
2018-09-26T04:44:04.711Z,97291.00
2018-09-26T04:44:36.986Z,97293.00
2018-09-26T04:45:09.276Z,97295.00
2018-09-26T04:45:41.385Z,97287.00
2018-09-26T04:46:13.504Z,97288.00
2018-09-26T04:46:45.643Z,97290.00
2018-09-26T04:47:17.811Z,97289.00
2018-09-26T04:47:49.994Z,97290.00
2018-09-26T04:48:22.093Z,97288.00
2018-09-26T04:48:54.174Z,97285.00
2018-09-26T04:49:26.509Z,97289.00
2018-09-26T04:49:58.947Z,97287.00
2018-09-26T04:50:31.128Z,97288.00
2018-09-26T04:51:03.241Z,97289.00
2018-09-26T04:51:35.347Z,97293.00
2018-09-26T04:52:07.424Z,97288.00
2018-09-26T04:52:39.508Z,97290.00
2018-09-26T04:53:11.613Z,97286.00
2018-09-26T04:53:43.698Z,97290.00
2018-09-26T04:54:15.792Z,97287.00
2018-09-26T04:54:47.857Z,97287.00
2018-09-26T04:55:20.098Z,97289.00
2018-09-26T04:55:52.199Z,97290.00
2018-09-26T04:56:24.363Z,97288.00
2018-09-26T04:56:56.536Z,97289.00
2018-09-26T04:57:28.665Z,97290.00
2018-09-26T04:58:00.959Z,97292.00
2018-09-26T04:58:33.038Z,97296.00
2018-09-26T04:59:05.165Z,97290.00
2018-09-26T04:59:37.298Z,97292.00
2018-09-26T05:00:09.387Z,97295.00
2018-09-26T05:00:41.663Z,97290.00
2018-09-26T05:01:13.737Z,97291.00
2018-09-26T05:01:45.834Z,97291.00
2018-09-26T05:02:17.949Z,97296.00
2018-09-26T05:02:50.070Z,97289.00
2018-09-26T05:03:22.309Z,97289.00
2018-09-26T05:03:54.387Z,97294.00
2018-09-26T05:04:26.562Z,97285.00
2018-09-26T05:04:58.800Z,97287.00
2018-09-26T05:05:30.894Z,97288.00
2018-09-26T05:06:03.059Z,97286.00
2018-09-26T05:06:35.139Z,97286.00
2018-09-26T05:07:07.354Z,97287.00
2018-09-26T05:07:39.509Z,97289.00
2018-09-26T05:08:11.769Z,97292.00
2018-09-26T05:08:43.840Z,97287.00
2018-09-26T05:09:16.009Z,97291.00
2018-09-26T05:09:48.070Z,97298.00
2018-09-26T05:10:20.190Z,97294.00
2018-09-26T05:10:52.321Z,97292.00
2018-09-26T05:11:24.438Z,97296.00
2018-09-26T05:11:56.533Z,97299.00
2018-09-26T05:12:28.678Z,97302.00
2018-09-26T05:13:00.782Z,97301.00
2018-09-26T05:13:33.045Z,97305.00
2018-09-26T05:14:05.133Z,97304.00
2018-09-26T05:14:37.360Z,97303.00
2018-09-26T05:15:09.475Z,97302.00
2018-09-26T05:15:41.743Z,97306.00
2018-09-26T05:16:13.863Z,97307.00
2018-09-26T05:16:46.021Z,97299.00
2018-09-26T05:17:18.134Z,97307.00
2018-09-26T05:17:50.247Z,97306.00
2018-09-26T05:18:22.359Z,97307.00
2018-09-26T05:18:54.567Z,97309.00
2018-09-26T05:19:26.725Z,97307.00
2018-09-26T05:19:59.002Z,97315.00
2018-09-26T05:20:31.132Z,97312.00
2018-09-26T05:21:03.495Z,97311.00
2018-09-26T05:21:35.846Z,97311.00
2018-09-26T05:22:07.985Z,97313.00
2018-09-26T05:22:40.148Z,97310.00
2018-09-26T05:23:12.527Z,97307.00
2018-09-26T05:23:44.591Z,97310.00
2018-09-26T05:24:16.824Z,97302.00
2018-09-26T05:24:49.045Z,97308.00
2018-09-26T05:25:21.163Z,97309.00
2018-09-26T05:25:53.264Z,97307.00
2018-09-26T05:26:25.513Z,97305.00
2018-09-26T05:26:57.618Z,97306.00
2018-09-26T05:27:29.771Z,97305.00
2018-09-26T05:28:01.859Z,97304.00
2018-09-26T05:28:34.026Z,97303.00
2018-09-26T05:29:06.238Z,97306.00
2018-09-26T05:29:38.430Z,97304.00
2018-09-26T05:30:10.668Z,97304.00
2018-09-26T05:30:42.908Z,97302.00
2018-09-26T05:31:15.300Z,97301.00
2018-09-26T05:31:47.424Z,97302.00
2018-09-26T05:32:19.710Z,97306.00
2018-09-26T05:32:51.849Z,97310.00
2018-09-26T05:33:24.088Z,97309.00
2018-09-26T05:33:56.225Z,97311.00
2018-09-26T05:34:28.332Z,97314.00
2018-09-26T05:35:00.656Z,97314.00
2018-09-26T05:35:32.737Z,97311.00
2018-09-26T05:36:04.886Z,97312.00
2018-09-26T05:36:36.990Z,97317.00
2018-09-26T05:37:09.099Z,97318.00
2018-09-26T05:37:41.234Z,97319.00
2018-09-26T05:38:13.346Z,97319.00
2018-09-26T05:38:45.462Z,97321.00
2018-09-26T05:39:17.583Z,97324.00
2018-09-26T05:39:49.747Z,97326.00
2018-09-26T05:40:21.887Z,97322.00
2018-09-26T05:40:54.018Z,97327.00
2018-09-26T05:41:26.170Z,97328.00
2018-09-26T05:41:58.399Z,97324.00
2018-09-26T05:42:30.529Z,97330.00
2018-09-26T05:43:02.734Z,97329.00
2018-09-26T05:43:34.825Z,97327.00
2018-09-26T05:44:07.042Z,97331.00
2018-09-26T05:44:39.337Z,97328.00
2018-09-26T05:45:11.418Z,97329.00
2018-09-26T05:45:43.604Z,97328.00
2018-09-26T05:46:15.765Z,97327.00
2018-09-26T05:46:48.014Z,97328.00
2018-09-26T05:47:20.196Z,97327.00
2018-09-26T05:47:52.368Z,97328.00
2018-09-26T05:48:24.463Z,97323.00
2018-09-26T05:48:56.629Z,97331.00
2018-09-26T05:49:28.724Z,97329.00
2018-09-26T05:50:00.859Z,97329.00
2018-09-26T05:50:33.032Z,97328.00
2018-09-26T05:51:05.185Z,97335.00
2018-09-26T05:51:37.396Z,97335.00
2018-09-26T05:52:09.474Z,97333.00
2018-09-26T05:52:41.606Z,97335.00
2018-09-26T05:53:13.870Z,97339.00
2018-09-26T05:53:45.979Z,97341.00
2018-09-26T05:54:18.181Z,97341.00
2018-09-26T05:54:50.306Z,97343.00
2018-09-26T05:55:22.613Z,97341.00
2018-09-26T05:55:54.738Z,97345.00
2018-09-26T05:56:26.825Z,97342.00
2018-09-26T05:56:58.939Z,97342.00
2018-09-26T05:57:31.110Z,97348.00
2018-09-26T05:58:03.249Z,97344.00
2018-09-26T05:58:35.390Z,97352.00
2018-09-26T05:59:07.501Z,97347.00
2018-09-26T05:59:40.005Z,97346.00
2018-09-26T06:00:12.276Z,97344.00
2018-09-26T06:00:44.588Z,97350.00
2018-09-26T06:01:16.682Z,97345.00
2018-09-26T06:01:48.834Z,97340.00
2018-09-26T06:02:20.958Z,97342.00
2018-09-26T06:02:53.222Z,97340.00
2018-09-26T06:03:25.404Z,97336.00
2018-09-26T06:03:57.497Z,97340.00
2018-09-26T06:04:29.637Z,97336.00
2018-09-26T06:05:01.844Z,97334.00
2018-09-26T06:05:34.172Z,97337.00
2018-09-26T06:06:06.222Z,97335.00
2018-09-26T06:06:38.324Z,97341.00
2018-09-26T06:07:10.420Z,97334.00
2018-09-26T06:07:42.662Z,97339.00
2018-09-26T06:08:14.804Z,97336.00
2018-09-26T06:08:47.005Z,97337.00
2018-09-26T06:09:19.239Z,97332.00
2018-09-26T06:09:51.497Z,97333.00
2018-09-26T06:10:23.726Z,97333.00
2018-09-26T06:10:55.889Z,97332.00
2018-09-26T06:11:28.001Z,97332.00
2018-09-26T06:12:00.171Z,97331.00
2018-09-26T06:12:32.390Z,97331.00
2018-09-26T06:13:04.608Z,97329.00
2018-09-26T06:13:36.652Z,97331.00
2018-09-26T06:14:08.770Z,97331.00
2018-09-26T06:14:41.086Z,97333.00
2018-09-26T06:15:13.508Z,97332.00
2018-09-26T06:15:45.674Z,97327.00
2018-09-26T06:16:17.763Z,97334.00
2018-09-26T06:16:49.869Z,97333.00
2018-09-26T06:17:21.978Z,97332.00
2018-09-26T06:17:54.125Z,97338.00